Time;durP1;ratioP1;P1;durP2;ratioP2;P2;SDS_P1;SDS_P2;PMS_P1;PMS_P2;Temp;Humidity;BMP_temperature;BMP_pressure;BME280_temperature;BME280_humidity;BME280_pressure;Samples;Min_cycle;Max_cycle;Signal;HPM_P1;HPM_P2
2022/07/23 00:02:11;;;;;;;4.32;2.63;;;;;;;;;;4654241;30;20054;-87
2022/07/23 00:04:37;;;;;;;3.42;2.75;;;;;;;;;;4650938;30;20049;-87
2022/07/23 00:07:03;;;;;;;3.45;2.70;;;;;;;;;;4650528;30;20049;-87
2022/07/23 00:09:31;;;;;;;3.47;3.17;;;;;;;;;;4638457;30;20053;-87
2022/07/23 00:11:57;;;;;;;4.93;2.80;;;;;;;;;;4640455;30;20049;-87
2022/07/23 00:14:23;;;;;;;3.95;3.00;;;;;;;;;;4640318;30;20048;-88
2022/07/23 00:16:51;;;;;;;5.90;3.28;;;;;;;;;;4649752;30;20057;-87
2022/07/23 00:19:17;;;;;;;3.47;2.97;;;;;;;;;;4638590;30;20058;-87
2022/07/23 00:21:44;;;;;;;4.88;3.05;;;;;;;;;;4670348;30;20590;-87
2022/07/23 00:24:10;;;;;;;7.03;2.90;;;;;;;;;;4665822;30;20150;-87
2022/07/23 00:26:36;;;;;;;5.05;3.67;;;;;;;;;;4641677;30;20045;-87
2022/07/23 00:29:02;;;;;;;5.57;3.50;;;;;;;;;;4646260;30;20145;-87
2022/07/23 00:31:28;;;;;;;6.10;3.88;;;;;;;;;;4639062;30;20072;-87
2022/07/23 00:33:57;;;;;;;5.65;3.50;;;;;;;;;;4650435;30;20064;-88
2022/07/23 00:36:23;;;;;;;5.57;3.92;;;;;;;;;;4657583;30;20065;-87
2022/07/23 00:38:50;;;;;;;4.32;3.55;;;;;;;;;;4654305;30;20150;-87
2022/07/23 00:41:16;;;;;;;4.10;3.60;;;;;;;;;;4658009;30;20065;-87
2022/07/23 00:43:42;;;;;;;7.63;4.30;;;;;;;;;;4663911;30;20683;-87
2022/07/23 00:46:08;;;;;;;6.68;3.95;;;;;;;;;;4633894;30;20054;-87
2022/07/23 00:48:34;;;;;;;6.68;3.60;;;;;;;;;;4650588;30;20066;-86
2022/07/23 00:51:00;;;;;;;4.43;3.70;;;;;;;;;;4643062;30;20049;-87
2022/07/23 00:53:26;;;;;;;5.47;3.85;;;;;;;;;;4653780;30;20049;-87
2022/07/23 00:55:53;;;;;;;4.47;3.60;;;;;;;;;;4646144;30;20056;-88
2022/07/23 00:58:19;;;;;;;5.38;3.70;;;;;;;;;;4641350;30;20391;-87
2022/07/23 01:00:45;;;;;;;6.15;4.03;;;;;;;;;;4638885;30;20099;-86
2022/07/23 01:03:11;;;;;;;4.18;3.47;;;;;;;;;;4652742;30;20742;-87
2022/07/23 01:05:38;;;;;;;5.43;3.80;;;;;;;;;;4652239;30;20717;-87
2022/07/23 01:08:04;;;;;;;5.38;3.65;;;;;;;;;;4662192;30;20048;-87
2022/07/23 01:10:33;;;;;;;3.75;3.45;;;;;;;;;;4624724;30;20428;-88
2022/07/23 01:13:00;;;;;;;4.55;3.83;;;;;;;;;;4624220;30;20061;-87
2022/07/23 01:15:26;;;;;;;6.78;3.75;;;;;;;;;;4651281;30;20057;-88
2022/07/23 01:17:52;;;;;;;5.15;3.92;;;;;;;;;;4651210;30;20493;-88
2022/07/23 01:20:18;;;;;;;4.65;3.85;;;;;;;;;;4650045;30;20050;-87
2022/07/23 01:22:44;;;;;;;3.60;3.28;;;;;;;;;;4638206;30;20053;-87
2022/07/23 01:25:10;;;;;;;4.28;3.88;;;;;;;;;;4637144;30;20053;-87
2022/07/23 01:27:37;;;;;;;5.00;4.15;;;;;;;;;;4667007;30;20060;-87
2022/07/23 01:30:03;;;;;;;4.20;3.80;;;;;;;;;;4649347;30;20132;-87
2022/07/23 01:32:30;;;;;;;3.63;3.30;;;;;;;;;;4659861;30;20493;-88
2022/07/23 01:34:56;;;;;;;8.38;3.83;;;;;;;;;;4653815;30;20921;-88
2022/07/23 01:37:22;;;;;;;5.20;3.90;;;;;;;;;;4657465;30;20045;-88
2022/07/23 01:39:48;;;;;;;3.67;3.38;;;;;;;;;;4636176;30;20091;-88
2022/07/23 01:42:14;;;;;;;4.20;3.80;;;;;;;;;;4645087;30;20077;-88
2022/07/23 01:44:42;;;;;;;4.00;3.60;;;;;;;;;;4635760;30;20061;-88
2022/07/23 01:47:08;;;;;;;;;;;;;;;;;;4642470;30;20123;-88
2022/07/23 01:49:34;;;;;;;3.28;3.08;;;;;;;;;;4671757;30;19927;-88
2022/07/23 01:52:00;;;;;;;5.32;3.70;;;;;;;;;;4657551;30;20064;-87
2022/07/23 01:54:27;;;;;;;3.70;3.38;;;;;;;;;;4657222;30;22634;-87
2022/07/23 01:56:53;;;;;;;3.60;3.30;;;;;;;;;;4672909;30;20144;-88
2022/07/23 01:59:19;;;;;;;3.78;2.80;;;;;;;;;;4658646;30;20436;-88
2022/07/23 02:01:45;;;;;;;3.80;3.28;;;;;;;;;;4659325;30;20041;-87
2022/07/23 02:04:11;;;;;;;4.95;3.20;;;;;;;;;;4655184;30;20069;-87
2022/07/23 02:06:37;;;;;;;3.60;3.30;;;;;;;;;;4657269;30;20053;-88
2022/07/23 02:09:03;;;;;;;4.82;3.30;;;;;;;;;;4663885;30;20053;-88
2022/07/23 02:11:29;;;;;;;3.33;2.97;;;;;;;;;;4638390;30;20053;-88
2022/07/23 02:13:55;;;;;;;3.75;2.95;;;;;;;;;;4649729;30;20102;-87
2022/07/23 02:16:21;;;;;;;3.05;2.72;;;;;;;;;;4650785;30;20279;-87
2022/07/23 02:18:47;;;;;;;3.08;2.55;;;;;;;;;;4667869;30;20045;-87
2022/07/23 02:21:13;;;;;;;3.08;2.60;;;;;;;;;;4628314;30;20054;-87
2022/07/23 02:23:39;;;;;;;2.85;2.65;;;;;;;;;;4639043;30;20053;-87
2022/07/23 02:26:06;;;;;;;2.72;2.53;;;;;;;;;;4638746;30;20136;-87
2022/07/23 02:28:32;;;;;;;3.35;2.45;;;;;;;;;;4624182;30;20136;-87
2022/07/23 02:30:58;;;;;;;4.22;3.10;;;;;;;;;;4649753;30;20057;-87
2022/07/23 02:33:24;;;;;;;4.97;3.30;;;;;;;;;;4653482;30;20177;-87
2022/07/23 02:35:50;;;;;;;3.95;3.55;;;;;;;;;;4652232;30;20139;-87
2022/07/23 02:38:16;;;;;;;5.68;3.67;;;;;;;;;;4636913;30;20593;-87
2022/07/23 02:40:42;;;;;;;6.78;3.88;;;;;;;;;;4653376;30;20470;-88
2022/07/23 02:43:08;;;;;;;4.35;3.80;;;;;;;;;;4637413;30;20050;-88
2022/07/23 02:45:34;;;;;;;6.78;3.78;;;;;;;;;;4653403;30;20442;-88
2022/07/23 02:48:00;;;;;;;4.97;4.03;;;;;;;;;;4641212;30;20140;-88
2022/07/23 02:50:26;;;;;;;5.07;4.47;;;;;;;;;;4663333;30;20056;-87
2022/07/23 02:52:52;;;;;;;4.40;4.00;;;;;;;;;;4653553;30;20076;-88
2022/07/23 02:55:18;;;;;;;3.97;3.60;;;;;;;;;;4669915;30;20049;-88
2022/07/23 02:57:44;;;;;;;4.30;3.85;;;;;;;;;;4643239;30;20049;-88
2022/07/23 03:00:11;;;;;;;7.28;4.45;;;;;;;;;;4653352;30;20136;-88
2022/07/23 03:02:37;;;;;;;7.45;4.00;;;;;;;;;;4652149;30;20058;-88
2022/07/23 03:05:03;;;;;;;4.57;4.13;;;;;;;;;;4655923;30;20462;-88
2022/07/23 03:07:29;;;;;;;4.47;3.90;;;;;;;;;;4659397;30;20132;-88
2022/07/23 03:09:55;;;;;;;4.85;3.65;;;;;;;;;;4650567;30;20092;-88
2022/07/23 03:12:21;;;;;;;4.40;4.00;;;;;;;;;;4654940;30;20478;-88
2022/07/23 03:14:47;;;;;;;4.68;4.10;;;;;;;;;;4640654;30;21194;-88
2022/07/23 03:17:13;;;;;;;4.72;4.28;;;;;;;;;;4654111;30;20406;-88
2022/07/23 03:19:39;;;;;;;5.90;4.57;;;;;;;;;;4666472;30;20070;-88
2022/07/23 03:22:06;;;;;;;6.30;4.10;;;;;;;;;;4636543;30;20064;-88
2022/07/23 03:27:16;;;;;;;4.50;4.10;;;;;;;;;;4668905;30;20061;-87
2022/07/23 03:29:42;;;;;;;8.18;4.57;;;;;;;;;;4669465;30;20112;-87
2022/07/23 03:32:09;;;;;;;6.47;4.25;;;;;;;;;;4643129;30;20050;-87
2022/07/23 03:34:35;;;;;;;4.88;4.47;;;;;;;;;;4678849;30;20049;-87
2022/07/23 03:37:01;;;;;;;7.82;5.20;;;;;;;;;;4668530;30;20147;-88
2022/07/23 03:39:27;;;;;;;6.55;4.53;;;;;;;;;;4653952;30;20082;-87
2022/07/23 03:41:53;;;;;;;5.90;4.68;;;;;;;;;;4643658;30;20146;-88
2022/07/23 03:44:19;;;;;;;6.07;4.38;;;;;;;;;;4650432;30;20041;-87
2022/07/23 03:46:45;;;;;;;4.82;4.25;;;;;;;;;;4675778;30;20041;-87
2022/07/23 03:49:11;;;;;;;4.30;3.72;;;;;;;;;;4646777;30;20212;-88
2022/07/23 03:51:38;;;;;;;3.97;3.33;;;;;;;;;;4677975;30;20053;-87
2022/07/23 03:54:04;;;;;;;5.05;3.00;;;;;;;;;;4654392;30;20050;-88
2022/07/23 03:56:30;;;;;;;4.78;3.65;;;;;;;;;;4674849;30;20071;-87
2022/07/23 03:58:56;;;;;;;4.18;3.67;;;;;;;;;;4659766;30;20045;-87
2022/07/23 04:01:22;;;;;;;4.03;3.65;;;;;;;;;;4643387;30;20069;-88
2022/07/23 04:03:48;;;;;;;3.72;2.80;;;;;;;;;;4632730;30;20064;-88
2022/07/23 04:06:14;;;;;;;3.83;3.13;;;;;;;;;;4622809;30;20096;-88
2022/07/23 04:08:40;;;;;;;3.70;3.00;;;;;;;;;;4655776;30;20053;-87
2022/07/23 04:11:06;;;;;;;4.10;3.40;;;;;;;;;;4649413;30;20104;-87
2022/07/23 04:13:32;;;;;;;3.63;3.33;;;;;;;;;;4657241;30;20050;-87
2022/07/23 04:15:58;;;;;;;4.15;3.55;;;;;;;;;;4640946;30;20499;-87
2022/07/23 04:18:24;;;;;;;3.92;3.53;;;;;;;;;;4654486;30;20953;-87
2022/07/23 04:20:53;;;;;;;6.10;4.03;;;;;;;;;;4653156;30;20053;-88
2022/07/23 04:23:20;;;;;;;6.40;4.47;;;;;;;;;;4639235;30;20072;-87
2022/07/23 04:25:46;;;;;;;5.82;4.85;;;;;;;;;;4653381;30;20112;-87
2022/07/23 04:28:12;;;;;;;6.47;4.78;;;;;;;;;;4637552;30;20049;-87
2022/07/23 04:30:38;;;;;;;7.30;5.03;;;;;;;;;;4651951;30;20730;-88
2022/07/23 04:33:06;;;;;;;8.00;5.05;;;;;;;;;;4658124;30;23291;-87
2022/07/23 04:35:32;;;;;;;6.13;4.78;;;;;;;;;;4651508;30;20061;-87
2022/07/23 04:37:59;;;;;;;5.15;4.65;;;;;;;;;;4618208;30;21023;-87
2022/07/23 04:40:25;;;;;;;7.63;5.07;;;;;;;;;;4638723;30;20731;-87
2022/07/23 04:42:51;;;;;;;4.72;4.32;;;;;;;;;;4639628;30;20080;-87
2022/07/23 04:45:17;;;;;;;5.32;4.82;;;;;;;;;;4638293;30;20064;-87
2022/07/23 04:47:43;;;;;;;14.18;5.50;;;;;;;;;;4653485;30;20144;-87
2022/07/23 04:50:10;;;;;;;5.88;5.05;;;;;;;;;;4649732;30;20120;-87
2022/07/23 04:52:36;;;;;;;6.43;4.80;;;;;;;;;;4653104;30;20050;-87
2022/07/23 04:55:02;;;;;;;6.25;4.82;;;;;;;;;;4640631;30;20054;-87
2022/07/23 04:57:28;;;;;;;5.25;4.32;;;;;;;;;;4652245;30;20062;-87
2022/07/23 04:59:54;;;;;;;5.43;4.70;;;;;;;;;;4637490;30;20475;-88
2022/07/23 05:02:20;;;;;;;7.63;5.38;;;;;;;;;;4624431;30;20045;-87
2022/07/23 05:04:46;;;;;;;4.85;3.97;;;;;;;;;;4662743;30;20053;-87
2022/07/23 05:07:12;;;;;;;9.55;4.97;;;;;;;;;;4640902;30;20053;-87
2022/07/23 05:09:38;;;;;;;10.00;5.00;;;;;;;;;;4655714;30;20049;-87
2022/07/23 05:12:04;;;;;;;5.63;4.40;;;;;;;;;;4621418;30;20046;-88
2022/07/23 05:14:30;;;;;;;5.75;4.80;;;;;;;;;;4634979;30;20077;-88
2022/07/23 05:16:56;;;;;;;6.28;4.78;;;;;;;;;;4665567;30;20049;-88
2022/07/23 05:19:22;;;;;;;8.68;5.07;;;;;;;;;;4641405;30;20096;-87
2022/07/23 05:21:49;;;;;;;7.70;5.25;;;;;;;;;;4654086;30;20057;-88
2022/07/23 05:24:15;;;;;;;8.93;5.05;;;;;;;;;;4648004;30;20120;-88
2022/07/23 05:26:41;;;;;;;6.70;5.25;;;;;;;;;;4653374;30;20088;-88
2022/07/23 05:29:07;;;;;;;9.02;5.03;;;;;;;;;;4637755;30;20052;-88
2022/07/23 05:31:33;;;;;;;6.50;4.90;;;;;;;;;;4646487;30;20057;-88
2022/07/23 05:33:59;;;;;;;5.80;4.72;;;;;;;;;;4655201;30;20054;-87
2022/07/23 05:36:25;;;;;;;9.45;5.25;;;;;;;;;;4676483;30;20785;-87
2022/07/23 05:38:51;;;;;;;5.60;4.78;;;;;;;;;;4663454;30;20060;-88
2022/07/23 05:41:17;;;;;;;6.93;4.90;;;;;;;;;;4646574;30;20528;-88
2022/07/23 05:43:43;;;;;;;6.57;4.32;;;;;;;;;;4647494;30;20517;-87
2022/07/23 05:46:09;;;;;;;6.85;4.28;;;;;;;;;;4644613;30;20058;-88
2022/07/23 05:48:35;;;;;;;6.30;4.88;;;;;;;;;;4661391;30;20121;-87
2022/07/23 05:51:03;;;;;;;4.47;3.50;;;;;;;;;;4660669;30;20061;-88
2022/07/23 05:53:29;;;;;;;6.85;3.70;;;;;;;;;;4667262;30;20121;-88
2022/07/23 05:55:55;;;;;;;6.68;4.50;;;;;;;;;;4646896;30;20056;-88
2022/07/23 05:58:21;;;;;;;3.72;3.33;;;;;;;;;;4664024;30;20053;-87
2022/07/23 06:00:47;;;;;;;5.50;3.72;;;;;;;;;;4658672;30;20056;-87
2022/07/23 06:03:13;;;;;;;5.35;3.97;;;;;;;;;;4651021;30;20136;-88
2022/07/23 06:05:39;;;;;;;6.43;3.50;;;;;;;;;;4656099;30;21095;-87
2022/07/23 06:08:05;;;;;;;5.72;3.63;;;;;;;;;;4645848;30;20058;-88
2022/07/23 06:10:31;;;;;;;6.68;3.78;;;;;;;;;;4659432;30;20054;-88
2022/07/23 06:12:57;;;;;;;4.28;3.60;;;;;;;;;;4633502;30;20045;-88
2022/07/23 06:15:24;;;;;;;7.63;4.05;;;;;;;;;;4626100;30;20066;-88
2022/07/23 06:17:53;;;;;;;4.28;3.55;;;;;;;;;;4648292;30;20065;-88
2022/07/23 06:20:19;;;;;;;5.18;3.55;;;;;;;;;;4638028;30;20115;-88
2022/07/23 06:22:45;;;;;;;4.97;3.15;;;;;;;;;;4654156;30;20431;-88
2022/07/23 06:25:11;;;;;;;6.78;3.33;;;;;;;;;;4633709;30;23043;-88
2022/07/23 06:27:37;;;;;;;4.68;3.13;;;;;;;;;;4651259;30;20054;-88
2022/07/23 06:30:03;;;;;;;3.78;2.85;;;;;;;;;;4659936;30;20486;-88
2022/07/23 06:32:29;;;;;;;10.13;2.75;;;;;;;;;;4650854;30;20061;-88
2022/07/23 06:34:55;;;;;;;4.50;2.47;;;;;;;;;;4631825;30;20231;-87
2022/07/23 06:37:21;;;;;;;5.05;2.75;;;;;;;;;;4649294;30;20140;-88
2022/07/23 06:39:47;;;;;;;3.55;2.35;;;;;;;;;;4657525;30;20052;-88
2022/07/23 06:42:14;;;;;;;3.92;2.53;;;;;;;;;;4662257;30;20061;-88
2022/07/23 06:44:40;;;;;;;4.63;2.22;;;;;;;;;;4638295;30;20103;-88
2022/07/23 06:47:07;;;;;;;4.35;2.35;;;;;;;;;;4657895;30;20057;-88
2022/07/23 06:49:33;;;;;;;3.05;2.45;;;;;;;;;;4653760;30;20056;-88
2022/07/23 06:51:59;;;;;;;3.67;2.10;;;;;;;;;;4660582;30;20053;-88
2022/07/23 06:54:25;;;;;;;6.13;2.28;;;;;;;;;;4650772;30;20690;-88
2022/07/23 06:56:51;;;;;;;5.60;1.95;;;;;;;;;;4649600;30;21270;-88
2022/07/23 06:59:17;;;;;;;5.13;2.05;;;;;;;;;;4667393;30;20095;-88
2022/07/23 07:01:43;;;;;;;2.63;1.80;;;;;;;;;;4650744;30;20136;-87
2022/07/23 07:04:10;;;;;;;3.38;1.80;;;;;;;;;;4647597;30;20103;-88
2022/07/23 07:06:36;;;;;;;4.75;1.90;;;;;;;;;;4637972;30;20115;-88
2022/07/23 07:09:02;;;;;;;2.95;1.58;;;;;;;;;;4650154;30;20100;-88
2022/07/23 07:11:28;;;;;;;4.47;1.10;;;;;;;;;;4657345;30;20057;-88
2022/07/23 07:13:54;;;;;;;2.58;1.58;;;;;;;;;;4651552;30;20054;-88
2022/07/23 07:16:20;;;;;;;3.60;1.42;;;;;;;;;;4655799;30;20045;-88
2022/07/23 07:18:46;;;;;;;3.63;1.20;;;;;;;;;;4651278;30;20045;-87
2022/07/23 07:21:12;;;;;;;1.05;0.95;;;;;;;;;;4646880;30;21387;-88
2022/07/23 07:23:38;;;;;;;1.48;1.13;;;;;;;;;;4656520;30;20064;-88
2022/07/23 07:26:04;;;;;;;3.72;1.00;;;;;;;;;;4648783;30;20114;-88
2022/07/23 07:28:30;;;;;;;2.05;0.80;;;;;;;;;;4646368;30;20661;-88
2022/07/23 07:30:56;;;;;;;2.78;0.90;;;;;;;;;;4665439;30;20038;-88
2022/07/23 07:33:22;;;;;;;2.63;0.88;;;;;;;;;;4640974;30;20096;-88
2022/07/23 07:35:48;;;;;;;0.82;0.70;;;;;;;;;;4654759;30;20049;-87
2022/07/23 07:38:14;;;;;;;2.13;1.05;;;;;;;;;;4646300;30;20054;-87
2022/07/23 07:40:41;;;;;;;2.53;0.70;;;;;;;;;;4657308;30;20574;-87
2022/07/23 07:43:07;;;;;;;1.55;0.80;;;;;;;;;;4636214;30;20045;-87
2022/07/23 07:45:33;;;;;;;1.20;0.70;;;;;;;;;;4658697;30;20355;-87
2022/07/23 07:47:59;;;;;;;2.88;0.80;;;;;;;;;;4638164;30;20061;-87
2022/07/23 07:50:25;;;;;;;1.98;0.65;;;;;;;;;;4653870;30;20506;-87
2022/07/23 07:52:54;;;;;;;4.30;0.98;;;;;;;;;;4639102;30;20053;-87
2022/07/23 07:55:20;;;;;;;1.38;0.90;;;;;;;;;;4638622;30;20071;-87
2022/07/23 07:57:46;;;;;;;2.33;1.02;;;;;;;;;;4658610;30;20749;-87
2022/07/23 08:00:12;;;;;;;2.38;0.70;;;;;;;;;;4654744;30;20052;-87
2022/07/23 08:02:42;;;;;;;1.05;0.73;;;;;;;;;;4649923;30;21631;-87
2022/07/23 08:05:09;;;;;;;1.58;0.70;;;;;;;;;;4647285;30;20103;-87
2022/07/23 08:07:35;;;;;;;2.80;0.88;;;;;;;;;;4645260;30;20050;-87
2022/07/23 08:10:01;;;;;;;1.73;0.75;;;;;;;;;;4646084;30;20154;-87
2022/07/23 08:12:27;;;;;;;1.45;0.70;;;;;;;;;;4633856;30;20371;-87
2022/07/23 08:14:53;;;;;;;2.35;1.05;;;;;;;;;;4626280;30;20081;-87
2022/07/23 08:17:19;;;;;;;2.15;1.15;;;;;;;;;;4642602;30;20057;-87
2022/07/23 08:19:45;;;;;;;3.03;0.65;;;;;;;;;;4658222;30;21451;-87
2022/07/23 08:22:11;;;;;;;2.38;0.60;;;;;;;;;;4640668;30;20369;-87
2022/07/23 08:24:37;;;;;;;1.60;0.80;;;;;;;;;;4642346;30;20088;-87
2022/07/23 08:27:03;;;;;;;0.98;0.50;;;;;;;;;;4640937;30;20068;-87
2022/07/23 08:29:30;;;;;;;0.73;0.40;;;;;;;;;;4640928;30;20392;-87
2022/07/23 08:31:56;;;;;;;1.35;0.68;;;;;;;;;;4658664;30;20053;-88
2022/07/23 08:34:22;;;;;;;2.88;0.60;;;;;;;;;;4646187;30;20057;-87
2022/07/23 08:36:48;;;;;;;1.75;0.60;;;;;;;;;;4638461;30;20099;-87
2022/07/23 08:39:14;;;;;;;1.42;1.00;;;;;;;;;;4626489;30;20077;-89
2022/07/23 08:41:41;;;;;;;2.40;0.63;;;;;;;;;;4649668;30;20933;-87
2022/07/23 08:44:08;;;;;;;1.85;0.60;;;;;;;;;;4649775;30;20088;-87
2022/07/23 08:46:35;;;;;;;2.35;0.60;;;;;;;;;;4640242;30;22740;-87
2022/07/23 08:49:01;;;;;;;0.57;0.57;;;;;;;;;;4646101;30;20121;-87
2022/07/23 08:51:27;;;;;;;1.23;0.40;;;;;;;;;;4635571;30;20180;-87
2022/07/23 08:53:54;;;;;;;2.05;0.50;;;;;;;;;;4644719;30;20050;-87
2022/07/23 08:56:20;;;;;;;1.98;0.75;;;;;;;;;;4666192;30;20057;-87
2022/07/23 08:58:46;;;;;;;1.80;0.60;;;;;;;;;;4649985;30;20049;-87
2022/07/23 09:01:12;;;;;;;2.85;0.43;;;;;;;;;;4620532;30;20418;-87
2022/07/23 09:03:39;;;;;;;1.33;0.50;;;;;;;;;;4659441;30;20407;-88
2022/07/23 09:06:05;;;;;;;2.08;0.70;;;;;;;;;;4658781;30;20521;-87
2022/07/23 09:08:35;;;;;;;1.05;0.68;;;;;;;;;;4654118;30;20049;-88
2022/07/23 09:11:02;;;;;;;0.50;0.40;;;;;;;;;;4632867;30;20057;-88
2022/07/23 09:13:29;;;;;;;0.88;0.52;;;;;;;;;;4643551;30;20056;-88
2022/07/23 09:15:56;;;;;;;0.68;0.50;;;;;;;;;;4649305;30;20498;-88
2022/07/23 09:18:28;;;;;;;1.13;0.47;;;;;;;;;;4636354;30;20057;-88
2022/07/23 09:21:06;;;;;;;0.95;0.60;;;;;;;;;;4663178;30;20436;-88
2022/07/23 09:23:39;;;;;;;0.57;0.50;;;;;;;;;;4647035;30;20070;-88
2022/07/23 09:26:17;;;;;;;1.08;0.60;;;;;;;;;;4641143;30;20061;-79
2022/07/23 09:28:56;;;;;;;1.08;0.55;;;;;;;;;;4670702;30;20115;-80
2022/07/23 09:31:22;;;;;;;1.48;0.50;;;;;;;;;;4662319;30;20494;-80
2022/07/23 09:33:48;;;;;;;1.02;0.52;;;;;;;;;;4654002;30;23647;-80
2022/07/23 09:36:14;;;;;;;1.45;0.50;;;;;;;;;;4659668;30;20052;-79
2022/07/23 09:38:50;;;;;;;1.60;0.70;;;;;;;;;;4652759;30;20801;-79
2022/07/23 09:41:16;;;;;;;1.40;0.68;;;;;;;;;;4671259;30;20104;-79
2022/07/23 09:43:42;;;;;;;1.42;0.50;;;;;;;;;;4667755;30;20061;-80
2022/07/23 09:46:18;;;;;;;0.65;0.50;;;;;;;;;;4654005;30;20399;-78
2022/07/23 09:48:44;;;;;;;1.55;0.70;;;;;;;;;;4657000;30;20254;-79
2022/07/23 09:51:10;;;;;;;1.48;0.77;;;;;;;;;;4668579;30;20065;-79
2022/07/23 09:53:36;;;;;;;1.02;0.40;;;;;;;;;;4669777;30;20053;-80
2022/07/23 09:56:03;;;;;;;0.73;0.70;;;;;;;;;;4654762;30;20061;-80
2022/07/23 09:58:29;;;;;;;1.80;0.60;;;;;;;;;;4646261;30;20519;-80
2022/07/23 10:00:55;;;;;;;0.70;0.50;;;;;;;;;;4650476;30;20418;-79
2022/07/23 10:03:21;;;;;;;1.48;0.60;;;;;;;;;;4648089;30;20492;-87
2022/07/23 10:05:47;;;;;;;1.90;0.70;;;;;;;;;;4666180;30;20057;-88
2022/07/23 10:08:13;;;;;;;0.77;0.50;;;;;;;;;;4649261;30;20049;-88
2022/07/23 10:10:40;;;;;;;1.85;0.93;;;;;;;;;;4671450;30;20062;-88
2022/07/23 10:15:51;;;;;;;0.90;0.50;;;;;;;;;;4651974;30;20410;-88
2022/07/23 10:18:17;;;;;;;2.47;0.60;;;;;;;;;;4651821;30;20046;-88
2022/07/23 10:20:43;;;;;;;2.45;0.70;;;;;;;;;;4670901;30;20587;-87
2022/07/23 10:23:09;;;;;;;1.10;0.60;;;;;;;;;;4662213;30;20054;-87
2022/07/23 10:25:42;;;;;;;1.20;0.70;;;;;;;;;;4654786;30;20041;-88
2022/07/23 10:28:22;;;;;;;0.85;0.60;;;;;;;;;;4662042;30;20049;-89
2022/07/23 10:30:48;;;;;;;2.05;0.60;;;;;;;;;;4667442;30;20053;-88
2022/07/23 10:33:47;;;;;;;0.52;0.50;;;;;;;;;;4656104;30;20045;-88
2022/07/23 10:36:19;;;;;;;1.38;0.50;;;;;;;;;;4636606;30;20057;-88
2022/07/23 10:38:59;;;;;;;2.10;0.75;;;;;;;;;;4668979;30;20154;-88
2022/07/23 10:41:35;;;;;;;0.90;0.70;;;;;;;;;;4634876;30;20111;-88
2022/07/23 10:44:13;;;;;;;0.90;0.57;;;;;;;;;;4658482;30;20062;-88
2022/07/23 10:49:27;;;;;;;;;;;;;;;;;;4651139;30;20057;-88
2022/07/23 10:52:12;;;;;;;5.38;0.90;;;;;;;;;;4658809;30;19934;-88
2022/07/23 10:54:38;;;;;;;1.30;0.77;;;;;;;;;;4672238;30;20495;-88
2022/07/23 10:57:07;;;;;;;1.45;0.70;;;;;;;;;;4656287;30;20062;-88
2022/07/23 10:59:52;;;;;;;0.80;0.70;;;;;;;;;;4648985;30;20060;-88
2022/07/23 11:02:26;;;;;;;0.57;0.55;;;;;;;;;;4665757;30;20049;-88
2022/07/23 11:04:54;;;;;;;1.45;0.60;;;;;;;;;;4656400;30;20092;-88
2022/07/23 11:07:20;;;;;;;4.45;0.73;;;;;;;;;;4662238;30;20114;-88
2022/07/23 11:09:47;;;;;;;0.80;0.75;;;;;;;;;;4660668;30;20546;-88
2022/07/23 11:12:13;;;;;;;2.17;1.20;;;;;;;;;;4678589;30;20056;-88
2022/07/23 11:14:58;;;;;;;2.25;0.63;;;;;;;;;;4672880;30;20128;-88
2022/07/23 11:17:25;;;;;;;0.63;0.63;;;;;;;;;;4657388;30;20478;-88
2022/07/23 11:20:09;;;;;;;0.88;0.70;;;;;;;;;;4663322;30;20573;-88
2022/07/23 11:22:58;;;;;;;0.75;0.60;;;;;;;;;;4656652;30;22817;-88
2022/07/23 11:25:28;;;;;;;1.30;0.73;;;;;;;;;;4677253;30;20061;-88
2022/07/23 11:27:54;;;;;;;0.70;0.70;;;;;;;;;;4669545;30;20132;-88
2022/07/23 11:30:26;;;;;;;1.25;0.70;;;;;;;;;;4675207;30;20041;-88
2022/07/23 11:32:52;;;;;;;1.48;1.10;;;;;;;;;;4684023;30;20042;-88
2022/07/23 11:35:22;;;;;;;0.77;0.60;;;;;;;;;;4655454;30;20064;-89
2022/07/23 11:37:48;;;;;;;0.82;0.80;;;;;;;;;;4655632;30;20050;-89
2022/07/23 11:40:16;;;;;;;1.33;0.77;;;;;;;;;;4649695;30;20108;-88
2022/07/23 11:43:11;;;;;;;0.80;0.80;;;;;;;;;;4668802;30;20052;-88
2022/07/23 11:45:41;;;;;;;1.30;0.90;;;;;;;;;;4657180;30;20081;-88
2022/07/23 11:48:16;;;;;;;1.35;1.00;;;;;;;;;;4660910;30;20148;-82
2022/07/23 11:50:42;;;;;;;1.95;0.90;;;;;;;;;;4653421;30;20108;-81
2022/07/23 11:53:08;;;;;;;1.52;1.05;;;;;;;;;;4645616;30;20041;-80
2022/07/23 11:55:34;;;;;;;1.10;0.80;;;;;;;;;;4645140;30;20050;-80
2022/07/23 11:58:00;;;;;;;1.50;0.98;;;;;;;;;;4650021;30;20414;-80
2022/07/23 12:00:27;;;;;;;3.38;1.33;;;;;;;;;;4637935;30;20144;-80
2022/07/23 12:02:54;;;;;;;1.27;1.17;;;;;;;;;;4644667;30;20457;-80
2022/07/23 12:05:21;;;;;;;2.10;0.93;;;;;;;;;;4651631;30;20403;-80
2022/07/23 12:07:50;;;;;;;1.00;0.95;;;;;;;;;;4641714;30;21491;-80
2022/07/23 12:10:21;;;;;;;1.98;1.00;;;;;;;;;;4664724;30;20049;-79
2022/07/23 12:12:52;;;;;;;1.98;1.00;;;;;;;;;;4649707;30;20360;-79
2022/07/23 12:15:19;;;;;;;1.35;1.02;;;;;;;;;;4650589;30;20084;-79
2022/07/23 12:17:46;;;;;;;3.38;1.20;;;;;;;;;;4635850;30;20064;-82
2022/07/23 12:20:22;;;;;;;1.70;0.85;;;;;;;;;;4616972;30;20111;-80
2022/07/23 12:22:49;;;;;;;1.60;1.15;;;;;;;;;;4659564;30;20065;-80
2022/07/23 12:25:22;;;;;;;1.17;1.00;;;;;;;;;;4633773;30;20205;-80
2022/07/23 12:27:58;;;;;;;2.25;1.40;;;;;;;;;;4649057;30;20072;-80
2022/07/23 12:30:25;;;;;;;2.40;1.17;;;;;;;;;;4667018;30;20050;-79
2022/07/23 12:32:55;;;;;;;2.88;1.30;;;;;;;;;;4641130;30;20171;-79
2022/07/23 12:35:21;;;;;;;1.88;1.20;;;;;;;;;;4659783;30;20100;-79
2022/07/23 12:37:48;;;;;;;2.72;1.27;;;;;;;;;;4621341;30;20711;-80
2022/07/23 12:40:23;;;;;;;1.42;1.17;;;;;;;;;;4644614;30;20050;-79
2022/07/23 12:42:50;;;;;;;1.95;1.02;;;;;;;;;;4652334;30;20194;-78
2022/07/23 12:45:17;;;;;;;1.85;1.42;;;;;;;;;;4653112;30;20049;-79
2022/07/23 12:47:58;;;;;;;2.13;1.25;;;;;;;;;;4656475;30;20046;-80
2022/07/23 12:50:31;;;;;;;1.70;1.20;;;;;;;;;;4655634;30;20092;-81
2022/07/23 12:53:23;;;;;;;2.03;1.25;;;;;;;;;;4624914;30;20054;-78
2022/07/23 12:55:50;;;;;;;3.28;1.00;;;;;;;;;;4652039;30;20522;-80
2022/07/23 12:58:17;;;;;;;1.52;1.08;;;;;;;;;;4631128;30;20802;-80
2022/07/23 13:00:50;;;;;;;15.13;2.78;;;;;;;;;;4640281;30;20053;-80
2022/07/23 13:03:31;;;;;;;5.70;1.40;;;;;;;;;;4650616;30;20057;-79
2022/07/23 13:05:57;;;;;;;7.60;1.80;;;;;;;;;;4642765;30;20042;-80
2022/07/23 13:08:24;;;;;;;2.30;1.58;;;;;;;;;;4656060;30;20045;-79
2022/07/23 13:10:51;;;;;;;2.30;1.20;;;;;;;;;;4634753;30;20052;-80
2022/07/23 13:13:21;;;;;;;1.95;1.20;;;;;;;;;;4635905;30;21744;-79
2022/07/23 13:15:47;;;;;;;1.75;1.13;;;;;;;;;;4639305;30;20050;-79
2022/07/23 13:18:13;;;;;;;1.90;1.15;;;;;;;;;;4635866;30;20096;-79
2022/07/23 13:20:39;;;;;;;1.60;1.23;;;;;;;;;;4665159;30;20666;-79
2022/07/23 13:23:06;;;;;;;2.08;1.02;;;;;;;;;;4634280;30;20510;-80
2022/07/23 13:25:32;;;;;;;1.25;1.15;;;;;;;;;;4643502;30;20053;-80
2022/07/23 13:27:58;;;;;;;2.03;1.10;;;;;;;;;;4649636;30;20088;-80
2022/07/23 13:30:24;;;;;;;1.30;1.20;;;;;;;;;;4661219;30;20519;-80
2022/07/23 13:32:50;;;;;;;1.55;1.33;;;;;;;;;;4647458;30;20482;-80
2022/07/23 13:35:16;;;;;;;1.42;1.33;;;;;;;;;;4650824;30;20117;-80
2022/07/23 13:37:42;;;;;;;3.25;1.30;;;;;;;;;;4652138;30;20482;-80
2022/07/23 13:40:09;;;;;;;2.17;1.20;;;;;;;;;;4648660;30;20057;-80
2022/07/23 13:42:35;;;;;;;3.08;1.42;;;;;;;;;;4652826;30;20103;-79
2022/07/23 13:45:01;;;;;;;2.92;1.20;;;;;;;;;;4657644;30;20160;-79
2022/07/23 13:47:27;;;;;;;2.55;1.05;;;;;;;;;;4649155;30;20061;-80
2022/07/23 13:49:53;;;;;;;3.20;1.30;;;;;;;;;;4646465;30;20057;-80
2022/07/23 13:52:19;;;;;;;1.58;1.23;;;;;;;;;;4650682;30;21224;-80
2022/07/23 13:54:45;;;;;;;4.45;1.42;;;;;;;;;;4663022;30;20041;-89
2022/07/23 13:57:11;;;;;;;1.80;1.00;;;;;;;;;;4641013;30;20087;-89
2022/07/23 13:59:37;;;;;;;2.53;1.00;;;;;;;;;;4654372;30;20120;-89
2022/07/23 14:02:04;;;;;;;3.35;1.00;;;;;;;;;;4643025;30;20129;-90
2022/07/23 14:04:30;;;;;;;1.50;1.30;;;;;;;;;;4660553;30;20534;-89
2022/07/23 14:06:56;;;;;;;2.90;1.30;;;;;;;;;;4666780;30;20049;-89
2022/07/23 14:09:22;;;;;;;1.70;1.13;;;;;;;;;;4643039;30;20050;-90
2022/07/23 14:11:49;;;;;;;2.45;1.30;;;;;;;;;;4660532;30;20401;-89
2022/07/23 14:14:19;;;;;;;1.60;1.02;;;;;;;;;;4649969;30;20511;-89
2022/07/23 14:16:46;;;;;;;4.13;1.13;;;;;;;;;;4648645;30;20064;-89
2022/07/23 14:19:12;;;;;;;1.60;0.93;;;;;;;;;;4632877;30;20092;-89
2022/07/23 14:21:38;;;;;;;1.40;1.13;;;;;;;;;;4662009;30;20081;-89
2022/07/23 14:24:04;;;;;;;1.38;1.00;;;;;;;;;;4623964;30;20694;-89
2022/07/23 14:26:30;;;;;;;1.15;0.95;;;;;;;;;;4632487;30;20604;-89
2022/07/23 14:28:56;;;;;;;1.60;1.23;;;;;;;;;;4645969;30;20597;-89
2022/07/23 14:31:22;;;;;;;1.48;1.10;;;;;;;;;;4649107;30;20088;-89
2022/07/23 14:33:49;;;;;;;1.73;1.10;;;;;;;;;;4650083;30;20400;-89
2022/07/23 14:36:15;;;;;;;1.25;1.13;;;;;;;;;;4634870;30;20132;-89
2022/07/23 14:38:41;;;;;;;1.13;1.05;;;;;;;;;;4636578;30;20512;-89
2022/07/23 14:41:07;;;;;;;2.60;1.30;;;;;;;;;;4632133;30;20080;-90
2022/07/23 14:43:34;;;;;;;4.10;1.33;;;;;;;;;;4646697;30;21238;-90
2022/07/23 14:46:00;;;;;;;1.88;1.20;;;;;;;;;;4655470;30;20622;-89
2022/07/23 14:48:26;;;;;;;4.63;1.20;;;;;;;;;;4620817;30;20418;-89
2022/07/23 14:50:52;;;;;;;3.40;1.20;;;;;;;;;;4629464;30;20084;-89
2022/07/23 14:53:18;;;;;;;2.50;1.00;;;;;;;;;;4647606;30;20171;-89